createdAt,value
2018-12-01T00:00:05.196Z,95319.54
2018-12-01T00:02:41.600Z,95317.58
2018-12-01T00:05:18.217Z,95313.22
2018-12-01T00:07:55.195Z,95314.20
2018-12-01T00:10:32.090Z,95317.42
2018-12-01T00:13:08.360Z,95311.59
2018-12-01T00:15:44.969Z,95310.62
2018-12-01T00:18:21.431Z,95310.62
2018-12-01T00:20:58.049Z,95309.00
2018-12-01T00:23:34.588Z,95314.84
2018-12-01T00:26:10.532Z,95318.53
2018-12-01T00:28:46.918Z,95312.71
2018-12-01T00:31:24.123Z,95310.45
2018-12-01T00:33:59.859Z,95315.77
2018-12-01T00:36:36.585Z,95312.39
2018-12-01T00:39:13.158Z,95310.97
2018-12-01T00:41:51.777Z,95307.09
2018-12-01T00:44:27.605Z,95305.80
2018-12-01T00:47:04.265Z,95309.05
2018-12-01T00:49:40.652Z,95312.76
2018-12-01T00:52:17.210Z,95317.44
2018-12-01T00:54:53.570Z,95309.52
2018-12-01T00:57:29.894Z,95314.21
2018-12-01T01:00:11.481Z,95320.33
2018-12-01T01:02:52.616Z,95319.38
2018-12-01T01:05:32.782Z,95321.00
2018-12-01T01:08:10.109Z,95324.23
2018-12-01T01:10:46.450Z,95325.02
2018-12-01T01:13:22.924Z,95330.86
2018-12-01T01:16:00.343Z,95328.28
2018-12-01T01:18:37.345Z,95325.37
2018-12-01T01:21:13.843Z,95327.47
2018-12-01T01:23:49.978Z,95325.52
2018-12-01T01:26:26.401Z,95322.30
2018-12-01T01:29:03.023Z,95321.14
2018-12-01T01:31:39.214Z,95320.03
2018-12-01T01:34:15.847Z,95323.75
2018-12-01T01:36:52.791Z,95322.77
2018-12-01T01:39:29.383Z,95322.44
2018-12-01T01:42:06.310Z,95323.58
2018-12-01T01:44:42.597Z,95323.74
2018-12-01T01:47:19.013Z,95330.53
2018-12-01T01:49:55.015Z,95325.69
2018-12-01T01:52:31.519Z,95328.27
2018-12-01T01:55:11.667Z,95328.91
2018-12-01T01:57:47.932Z,95327.63
2018-12-01T02:00:24.580Z,95331.67
2018-12-01T02:03:00.471Z,95322.28
2018-12-01T02:05:36.918Z,95328.42
2018-12-01T02:08:13.553Z,95333.77
2018-12-01T02:10:49.944Z,95331.34
2018-12-01T02:13:26.499Z,95338.30
2018-12-01T02:16:04.417Z,95339.41
2018-12-01T02:18:41.312Z,95338.63
2018-12-01T02:21:17.731Z,95340.55
2018-12-01T02:23:53.970Z,95341.05
2018-12-01T02:26:30.280Z,95341.20
2018-12-01T02:29:06.640Z,95338.78
2018-12-01T02:31:43.237Z,95339.41
2018-12-01T02:34:20.051Z,95333.94
2018-12-01T02:36:56.385Z,95333.45
2018-12-01T02:39:33.249Z,95331.66
2018-12-01T02:42:09.829Z,95334.56
2018-12-01T02:45:12.309Z,95332.80
2018-12-01T02:47:48.439Z,95329.73
2018-12-01T02:50:30.161Z,95320.83
2018-12-01T02:53:06.604Z,95333.11
2018-12-01T02:55:43.015Z,95328.92
2018-12-01T02:58:19.346Z,95325.83
2018-12-01T03:00:56.122Z,95322.12
2018-12-01T03:03:32.304Z,95316.96
2018-12-01T03:06:09.059Z,95318.72
2018-12-01T03:08:45.343Z,95318.72
2018-12-01T03:11:21.561Z,95326.19
2018-12-01T03:13:57.833Z,95325.36
2018-12-01T03:16:34.456Z,95327.29
2018-12-01T03:19:10.830Z,95321.02
2018-12-01T03:21:47.659Z,95319.39
2018-12-01T03:24:24.444Z,95323.27
2018-12-01T03:27:00.903Z,95316.12
2018-12-01T03:29:37.756Z,95322.25
2018-12-01T03:32:14.469Z,95325.14
2018-12-01T03:34:51.893Z,95325.27
2018-12-01T03:37:28.713Z,95324.91
2018-12-01T03:40:06.319Z,95324.45
2018-12-01T03:42:42.934Z,95320.34
2018-12-01T03:45:20.885Z,95317.56
2018-12-01T03:47:57.342Z,95314.37
2018-12-01T03:50:34.050Z,95323.77
2018-12-01T03:53:11.982Z,95310.95
2018-12-01T03:55:48.411Z,95316.39
2018-12-01T03:58:25.048Z,95317.95
2018-12-01T04:01:01.484Z,95320.95
2018-12-01T04:03:38.050Z,95311.03
2018-12-01T04:06:14.757Z,95315.88
2018-12-01T04:08:51.454Z,95317.16
2018-12-01T04:11:27.932Z,95321.42
2018-12-01T04:14:04.768Z,95320.64
2018-12-01T04:16:41.481Z,95320.56
2018-12-01T04:19:17.820Z,95313.33
2018-12-01T04:21:54.278Z,95311.22
2018-12-01T04:24:30.536Z,95319.63
2018-12-01T04:27:06.906Z,95319.11
2018-12-01T04:29:43.346Z,95314.39
2018-12-01T04:32:20.341Z,95320.45
2018-12-01T04:34:56.673Z,95317.05
2018-12-01T04:37:32.965Z,95315.92
2018-12-01T04:40:10.469Z,95321.12
2018-12-01T04:42:47.766Z,95312.16
2018-12-01T04:45:23.961Z,95317.63
2018-12-01T04:48:00.533Z,95308.05
2018-12-01T04:50:36.914Z,95308.52
2018-12-01T04:53:13.446Z,95304.05
2018-12-01T04:55:49.800Z,95305.16
2018-12-01T04:58:26.119Z,95307.29
2018-12-01T05:01:02.083Z,95311.79
2018-12-01T05:03:38.333Z,95310.66
2018-12-01T05:06:14.858Z,95315.81
2018-12-01T05:08:51.198Z,95303.30
2018-12-01T05:11:28.074Z,95307.88
2018-12-01T05:14:04.553Z,95307.98
2018-12-01T05:16:41.002Z,95306.08
2018-12-01T05:19:17.119Z,95304.35
2018-12-01T05:21:53.777Z,95305.02
2018-12-01T05:24:29.964Z,95303.92
2018-12-01T05:27:06.692Z,95313.95
2018-12-01T05:29:43.376Z,95313.80
2018-12-01T05:32:19.983Z,95319.34
2018-12-01T05:34:56.726Z,95321.48
2018-12-01T05:37:33.477Z,95328.91
2018-12-01T05:40:12.997Z,95332.81
2018-12-01T05:42:49.470Z,95328.63
2018-12-01T05:45:25.744Z,95327.48
2018-12-01T05:48:02.236Z,95322.02
2018-12-01T05:50:38.919Z,95324.59
2018-12-01T05:53:15.468Z,95313.14
2018-12-01T05:55:52.024Z,95323.99
2018-12-01T05:58:28.487Z,95329.00
2018-12-01T06:01:05.064Z,95328.20
2018-12-01T06:03:41.803Z,95334.53
2018-12-01T06:06:18.205Z,95340.98
2018-12-01T06:08:54.557Z,95351.97
2018-12-01T06:11:30.670Z,95346.14
2018-12-01T06:14:07.083Z,95351.15
2018-12-01T06:16:43.332Z,95355.34
2018-12-01T06:19:19.851Z,95350.67
2018-12-01T06:21:55.982Z,95357.61
2018-12-01T06:24:33.321Z,95351.31
2018-12-01T06:27:09.907Z,95355.34
2018-12-01T06:29:46.287Z,95361.63
2018-12-01T06:32:23.017Z,95364.38
2018-12-01T06:34:54.421Z,95371.83
2018-12-01T06:37:30.695Z,95369.25
2018-12-01T06:40:12.143Z,95377.44
2018-12-01T06:42:48.132Z,95376.34
2018-12-01T06:45:24.321Z,95375.07
2018-12-01T06:48:00.699Z,95366.67
2018-12-01T06:50:37.165Z,95365.31
2018-12-01T06:53:13.794Z,95367.40
2018-12-01T06:55:50.219Z,95362.08
2018-12-01T06:58:26.845Z,95363.05
2018-12-01T07:01:03.393Z,95362.92
2018-12-01T07:03:39.816Z,95375.83
2018-12-01T07:06:16.260Z,95368.77
2018-12-01T07:08:52.621Z,95361.69
2018-12-01T07:11:28.569Z,95370.11
2018-12-01T07:14:05.244Z,95368.19
2018-12-01T07:16:41.665Z,95364.97
2018-12-01T07:19:19.567Z,95365.13
2018-12-01T07:21:55.258Z,95365.61
2018-12-01T07:24:31.978Z,95371.13
2018-12-01T07:27:08.477Z,95359.36
2018-12-01T07:29:44.725Z,95366.98
2018-12-01T07:32:21.299Z,95373.59
2018-12-01T07:34:58.128Z,95377.98
2018-12-01T07:37:34.482Z,95381.06
2018-12-01T07:40:14.922Z,95378.63
2018-12-01T07:42:51.642Z,95384.30
2018-12-01T07:45:28.140Z,95389.30
2018-12-01T07:48:04.656Z,95385.28
2018-12-01T07:50:40.994Z,95389.66
2018-12-01T07:53:17.499Z,95379.66
2018-12-01T07:55:53.825Z,95379.64
2018-12-01T07:58:30.189Z,95378.00
2018-12-01T08:01:06.870Z,95376.19
2018-12-01T08:03:43.301Z,95370.67
2018-12-01T08:06:19.876Z,95365.90
2018-12-01T08:08:56.191Z,95362.00
2018-12-01T08:11:32.658Z,95352.20
2018-12-01T08:14:09.257Z,95354.91
2018-12-01T08:16:46.137Z,95358.59
2018-12-01T08:19:23.352Z,95357.48
2018-12-01T08:21:59.926Z,95353.40
2018-12-01T08:24:36.428Z,95356.39
2018-12-01T08:27:13.071Z,95352.28
2018-12-01T08:29:49.426Z,95350.34
2018-12-01T08:32:26.223Z,95339.61
2018-12-01T08:35:02.539Z,95343.33
2018-12-01T08:37:38.593Z,95332.14
2018-12-01T08:40:17.016Z,95332.10
2018-12-01T08:42:54.543Z,95337.27
2018-12-01T08:45:31.146Z,95339.28
2018-12-01T08:48:09.175Z,95327.94
2018-12-01T08:50:46.363Z,95321.84
2018-12-01T08:53:21.992Z,95321.80
2018-12-01T08:55:58.659Z,95316.88
2018-12-01T08:58:35.683Z,95321.66
2018-12-01T09:01:12.371Z,95326.69
2018-12-01T09:03:49.012Z,95328.25
2018-12-01T09:06:26.020Z,95326.33
2018-12-01T09:09:02.826Z,95332.39
2018-12-01T09:11:39.066Z,95338.86
2018-12-01T09:14:15.908Z,95336.64
2018-12-01T09:16:52.367Z,95338.81
2018-12-01T09:19:28.980Z,95341.63
2018-12-01T09:22:05.821Z,95342.85
2018-12-01T09:24:42.477Z,95346.13
2018-12-01T09:27:22.472Z,95356.33
2018-12-01T09:29:55.677Z,95357.46
2018-12-01T09:32:31.866Z,95364.20
2018-12-01T09:35:08.528Z,95364.11
2018-12-01T09:37:45.106Z,95367.87
2018-12-01T09:40:23.217Z,95366.39
2018-12-01T09:42:59.920Z,95368.55
2018-12-01T09:45:36.355Z,95362.67
2018-12-01T09:48:13.229Z,95360.48
2018-12-01T09:50:49.691Z,95355.14
2018-12-01T09:53:26.327Z,95361.17
2018-12-01T09:56:03.038Z,95355.34
2018-12-01T09:58:39.376Z,95351.80
2018-12-01T10:01:16.671Z,95355.70
2018-12-01T10:03:53.491Z,95353.38
2018-12-01T10:06:29.490Z,95345.78
2018-12-01T10:09:08.820Z,95338.13
2018-12-01T10:11:50.329Z,95342.05
2018-12-01T10:14:21.266Z,95349.77
2018-12-01T10:16:57.678Z,95343.16
2018-12-01T10:19:34.043Z,95354.51
2018-12-01T10:22:10.755Z,95362.17
2018-12-01T10:24:48.095Z,95356.59
2018-12-01T10:27:24.387Z,95360.28
2018-12-01T10:30:00.659Z,95367.42
2018-12-01T10:32:37.333Z,95372.55
2018-12-01T10:35:18.098Z,95369.38
2018-12-01T10:38:30.659Z,95370.86
2018-12-01T10:41:07.308Z,95359.62
2018-12-01T10:43:43.763Z,95356.22
2018-12-01T10:46:20.199Z,95353.03
2018-12-01T10:48:57.105Z,95349.30
2018-12-01T10:51:33.670Z,95345.26
2018-12-01T10:54:10.581Z,95341.92
2018-12-01T10:56:47.781Z,95336.37
2018-12-01T10:59:24.397Z,95327.48
2018-12-01T11:02:06.102Z,95330.78
2018-12-01T11:04:43.147Z,95326.52
2018-12-01T11:07:20.424Z,95321.50
2018-12-01T11:09:57.882Z,95306.28
2018-12-01T11:12:35.102Z,95302.05
2018-12-01T11:15:11.955Z,95301.53
2018-12-01T11:17:48.407Z,95287.50
2018-12-01T11:20:25.230Z,95291.41
2018-12-01T11:23:01.585Z,95289.63
2018-12-01T11:25:38.309Z,95288.55
2018-12-01T11:28:15.218Z,95279.83
2018-12-01T11:30:51.902Z,95281.35
2018-12-01T11:33:28.561Z,95276.56
2018-12-01T11:36:05.226Z,95285.63
2018-12-01T11:38:41.666Z,95279.16
2018-12-01T11:41:18.945Z,95278.88
2018-12-01T11:43:56.447Z,95284.30
2018-12-01T11:46:33.174Z,95283.22
2018-12-01T11:49:10.147Z,95287.14
2018-12-01T11:51:48.349Z,95278.73
2018-12-01T11:54:25.155Z,95270.47
2018-12-01T11:57:02.098Z,95275.92
2018-12-01T11:59:39.213Z,95274.17
2018-12-01T12:02:17.289Z,95272.14
2018-12-01T12:04:54.547Z,95277.72
2018-12-01T12:07:47.449Z,95274.00
2018-12-01T12:10:24.619Z,95265.94
2018-12-01T12:13:01.469Z,95260.90
2018-12-01T12:15:38.161Z,95262.13
2018-12-01T12:18:15.567Z,95247.70
2018-12-01T12:20:52.691Z,95254.33
2018-12-01T12:23:29.661Z,95247.69
2018-12-01T12:26:06.678Z,95249.47
2018-12-01T12:28:43.801Z,95239.38
2018-12-01T12:31:21.056Z,95237.38
2018-12-01T12:33:58.691Z,95238.02
2018-12-01T12:36:36.833Z,95232.59
2018-12-01T12:39:13.162Z,95233.62
2018-12-01T12:41:49.785Z,95228.71
2018-12-01T12:44:26.400Z,95218.55
2018-12-01T12:47:02.960Z,95221.58
2018-12-01T12:49:39.501Z,95216.95
2018-12-01T12:52:16.295Z,95218.97
2018-12-01T12:54:52.965Z,95211.75
2018-12-01T12:57:29.415Z,95212.14
2018-12-01T13:00:10.052Z,95225.81
2018-12-01T13:02:51.326Z,95231.05
2018-12-01T13:05:32.637Z,95229.87
2018-12-01T13:08:10.409Z,95235.18
2018-12-01T13:10:46.937Z,95230.41
2018-12-01T13:13:23.894Z,95236.08
2018-12-01T13:16:00.499Z,95234.25
2018-12-01T13:18:36.687Z,95226.80
2018-12-01T13:21:13.072Z,95222.95
2018-12-01T13:23:49.721Z,95223.80
2018-12-01T13:26:26.208Z,95233.95
2018-12-01T13:29:02.999Z,95217.02
2018-12-01T13:31:39.623Z,95219.14
2018-12-01T13:34:16.267Z,95217.45
2018-12-01T13:36:53.442Z,95210.48
2018-12-01T13:39:29.948Z,95207.31
2018-12-01T13:42:07.175Z,95208.25
2018-12-01T13:44:43.552Z,95207.35
2018-12-01T13:47:19.973Z,95204.88
2018-12-01T13:49:56.362Z,95203.05
2018-12-01T13:52:32.836Z,95211.53
2018-12-01T13:55:10.580Z,95203.96
2018-12-01T13:57:47.571Z,95196.67
2018-12-01T14:00:26.598Z,95192.92
2018-12-01T14:03:02.927Z,95192.56
2018-12-01T14:05:40.373Z,95199.65
2018-12-01T14:08:17.074Z,95196.92
2018-12-01T14:10:53.847Z,95191.09
2018-12-01T14:13:30.525Z,95190.38
2018-12-01T14:16:07.187Z,95187.23
2018-12-01T14:18:43.868Z,95181.03
2018-12-01T14:21:20.237Z,95187.30
2018-12-01T14:23:56.928Z,95173.56
2018-12-01T14:26:33.589Z,95172.73
2018-12-01T14:29:10.269Z,95173.22
2018-12-01T14:31:46.887Z,95185.16
2018-12-01T14:34:23.505Z,95181.80
2018-12-01T14:37:00.196Z,95170.06
2018-12-01T14:39:36.892Z,95180.05
2018-12-01T14:42:13.474Z,95188.95
2018-12-01T14:44:49.488Z,95193.78
2018-12-01T14:47:25.265Z,95184.98
2018-12-01T14:50:01.576Z,95174.92
2018-12-01T14:52:37.941Z,95175.28
2018-12-01T14:55:17.000Z,95171.08
2018-12-01T14:57:53.457Z,95169.17
2018-12-01T15:00:29.870Z,95166.45
2018-12-01T15:03:06.783Z,95166.81
2018-12-01T15:05:43.672Z,95168.83
2018-12-01T15:08:20.630Z,95172.55
2018-12-01T15:10:57.405Z,95171.65
2018-12-01T15:13:33.821Z,95180.67
2018-12-01T15:16:10.716Z,95180.63
2018-12-01T15:18:47.217Z,95184.94
2018-12-01T15:21:23.920Z,95188.30
2018-12-01T15:24:00.720Z,95191.11
2018-12-01T15:26:37.076Z,95176.82
2018-12-01T15:29:13.648Z,95182.53
2018-12-01T15:31:50.403Z,95187.64
2018-12-01T15:34:27.692Z,95181.09
2018-12-01T15:37:04.770Z,95182.77
2018-12-01T15:39:41.313Z,95170.50
2018-12-01T15:42:17.890Z,95168.09
2018-12-01T15:44:54.207Z,95171.80
2018-12-01T15:47:31.691Z,95166.33
2018-12-01T15:50:14.737Z,95154.98
2018-12-01T15:52:55.097Z,95161.81
2018-12-01T15:55:32.128Z,95156.99
2018-12-01T15:58:09.722Z,95167.27
2018-12-01T16:00:46.806Z,95161.16
2018-12-01T16:03:23.306Z,95155.05
2018-12-01T16:05:59.834Z,95156.51
2018-12-01T16:08:36.258Z,95163.63
2018-12-01T16:11:12.666Z,95159.61
2018-12-01T16:13:49.105Z,95154.88
2018-12-01T16:16:25.120Z,95153.58
2018-12-01T16:19:01.323Z,95160.86
2018-12-01T16:21:37.533Z,95158.14
2018-12-01T16:24:13.664Z,95159.78
2018-12-01T16:26:49.437Z,95169.83
2018-12-01T16:29:25.173Z,95168.23
2018-12-01T16:32:01.071Z,95164.66
2018-12-01T16:34:37.155Z,95163.36
2018-12-01T16:37:13.006Z,95151.72
2018-12-01T16:39:48.956Z,95153.36
2018-12-01T16:42:24.913Z,95148.02
2018-12-01T16:45:00.863Z,95146.41
2018-12-01T16:47:36.817Z,95147.06
2018-12-01T16:50:15.645Z,95147.06
2018-12-01T16:52:51.988Z,95140.72
2018-12-01T16:55:27.808Z,95137.50
2018-12-01T16:58:03.932Z,95136.55
2018-12-01T17:00:39.907Z,95121.03
2018-12-01T17:03:16.203Z,95119.30
2018-12-01T17:05:56.268Z,95108.31
2018-12-01T17:08:32.031Z,95106.20
2018-12-01T17:11:09.483Z,95104.12
2018-12-01T17:13:45.528Z,95098.48
2018-12-01T17:16:21.689Z,95098.44
2018-12-01T17:18:57.613Z,95098.09
2018-12-01T17:21:33.596Z,95100.98
2018-12-01T17:24:09.606Z,95106.20
2018-12-01T17:26:45.362Z,95111.46
2018-12-01T17:29:21.329Z,95112.39
2018-12-01T17:31:57.081Z,95105.45
2018-12-01T17:34:33.101Z,95102.35
2018-12-01T17:37:09.148Z,95096.76
2018-12-01T17:39:45.023Z,95105.52
2018-12-01T17:42:21.007Z,95100.69
2018-12-01T17:44:56.871Z,95107.92
2018-12-01T17:47:33.142Z,95097.04
2018-12-01T17:50:14.434Z,95089.89
2018-12-01T17:52:53.777Z,95098.13
2018-12-01T17:55:31.159Z,95092.65
2018-12-01T17:58:11.068Z,95091.65
2018-12-01T18:00:46.904Z,95087.00
2018-12-01T18:03:22.854Z,95092.53
2018-12-01T18:05:58.833Z,95088.69
2018-12-01T18:08:35.183Z,95085.41
2018-12-01T18:11:12.187Z,95084.89
2018-12-01T18:13:47.973Z,95077.47
2018-12-01T18:16:23.846Z,95071.00
2018-12-01T18:18:59.684Z,95071.12
2018-12-01T18:21:35.568Z,95077.58
2018-12-01T18:24:11.537Z,95073.47
2018-12-01T18:26:47.412Z,95079.36
2018-12-01T18:29:23.392Z,95071.29
2018-12-01T18:31:59.217Z,95078.42
2018-12-01T18:34:35.065Z,95079.11
2018-12-01T18:37:11.564Z,95077.19
2018-12-01T18:39:47.409Z,95078.17
2018-12-01T18:42:23.505Z,95070.89
2018-12-01T18:44:59.253Z,95073.28
2018-12-01T18:47:35.275Z,95069.25
2018-12-01T18:50:14.787Z,95069.06
2018-12-01T18:53:06.828Z,95064.70
2018-12-01T18:55:56.382Z,95060.17
2018-12-01T18:58:32.295Z,95057.89
2018-12-01T19:01:10.386Z,95059.20
2018-12-01T19:03:46.131Z,95059.08
2018-12-01T19:06:22.181Z,95052.66
2018-12-01T19:08:58.228Z,95043.95
2018-12-01T19:11:34.091Z,95043.30
2018-12-01T19:14:10.101Z,95037.31
2018-12-01T19:16:45.930Z,95032.91
2018-12-01T19:19:21.989Z,95024.97
2018-12-01T19:21:58.225Z,95030.06
2018-12-01T19:24:34.145Z,95026.47
2018-12-01T19:27:10.064Z,95028.94
2018-12-01T19:29:45.930Z,95036.01
2018-12-01T19:32:21.880Z,95041.70
2018-12-01T19:34:57.699Z,95036.17
2018-12-01T19:37:33.591Z,95034.89
2018-12-01T19:40:15.239Z,95040.70
2018-12-01T19:42:51.338Z,95033.41
2018-12-01T19:45:27.508Z,95029.00
2018-12-01T19:48:03.375Z,95036.59
2018-12-01T19:50:41.717Z,95028.47
2018-12-01T19:53:18.968Z,95030.64
2018-12-01T19:55:55.586Z,95033.08
2018-12-01T19:58:31.680Z,95023.01
2018-12-01T20:01:07.969Z,95024.94
2018-12-01T20:03:43.765Z,95021.25
2018-12-01T20:06:19.676Z,95005.07
2018-12-01T20:08:55.408Z,95007.53
2018-12-01T21:01:19.735Z,94964.65
2018-12-01T21:03:55.425Z,94964.17
2018-12-01T21:06:31.210Z,94954.17
2018-12-01T21:09:10.282Z,94953.50
2018-12-01T21:11:46.748Z,94953.27
2018-12-01T21:14:29.424Z,94945.42
2018-12-01T21:17:09.597Z,94938.63
2018-12-01T21:19:46.619Z,94934.70
2018-12-01T21:23:14.018Z,94934.45
2018-12-01T21:25:49.904Z,94928.09
2018-12-01T21:28:25.714Z,94927.71
2018-12-01T21:31:01.761Z,94930.75
2018-12-01T21:33:37.824Z,94922.69
2018-12-01T21:36:13.835Z,94919.44
2018-12-01T21:38:49.549Z,94919.41
2018-12-01T21:41:25.388Z,94899.53
2018-12-01T21:44:01.629Z,94897.78
2018-12-01T21:46:37.587Z,94890.25
2018-12-01T21:49:13.663Z,94894.63
2018-12-01T21:51:49.466Z,94897.05
2018-12-01T21:54:25.370Z,94901.93
2018-12-01T21:57:01.974Z,94910.06
2018-12-01T21:59:37.093Z,94895.69
2018-12-01T22:02:12.984Z,94891.69
2018-12-01T22:04:48.764Z,94893.55
2018-12-01T22:07:24.585Z,94894.44
2018-12-01T22:10:00.489Z,94894.56
2018-12-01T22:12:36.250Z,94893.69
2018-12-01T22:15:20.994Z,94893.14
2018-12-01T22:17:56.885Z,94896.19
2018-12-01T22:20:32.969Z,94887.42
2018-12-01T22:23:09.037Z,94889.14
2018-12-01T22:25:44.995Z,94887.84
2018-12-01T22:28:20.951Z,94891.22
2018-12-01T22:30:57.872Z,94887.52
2018-12-01T22:33:33.841Z,94885.85
2018-12-01T22:36:09.680Z,94881.99
2018-12-01T22:38:45.496Z,94891.64
2018-12-01T22:41:21.405Z,94876.29
